createdAt,value
2017-12-30T00:00:45.661Z,90.40
2017-12-30T00:03:15.077Z,89.40
2017-12-30T00:05:44.014Z,90.00
2017-12-30T00:08:12.176Z,90.00
2017-12-30T00:10:40.422Z,90.50
2017-12-30T00:13:08.586Z,89.00
2017-12-30T00:15:37.746Z,88.70
2017-12-30T00:18:07.103Z,88.70
2017-12-30T00:20:37.498Z,88.50
2017-12-30T00:23:06.901Z,89.60
2017-12-30T00:25:36.693Z,89.60
2017-12-30T00:28:05.543Z,89.20
2017-12-30T00:30:34.547Z,90.10
2017-12-30T00:33:04.332Z,90.60
2017-12-30T00:35:34.097Z,90.80
2017-12-30T00:38:03.146Z,90.80
2017-12-30T00:40:32.288Z,90.80
2017-12-30T00:43:02.413Z,90.60
2017-12-30T00:45:31.896Z,91.20
2017-12-30T00:48:00.071Z,91.60
2017-12-30T00:50:28.268Z,91.50
2017-12-30T00:52:56.814Z,92.00
2017-12-30T00:55:26.710Z,92.20
2017-12-30T00:57:55.736Z,92.30
2017-12-30T01:00:24.502Z,92.20
2017-12-30T01:02:54.456Z,92.40
2017-12-30T01:05:23.394Z,92.40
2017-12-30T01:07:54.137Z,92.40
2017-12-30T01:10:22.354Z,92.30
2017-12-30T01:12:50.593Z,91.80
2017-12-30T01:15:19.478Z,91.90
2017-12-30T01:17:48.514Z,91.60
2017-12-30T01:20:17.744Z,91.30
2017-12-30T01:22:46.761Z,91.50
2017-12-30T01:25:14.923Z,91.50
2017-12-30T01:27:43.962Z,91.60
2017-12-30T01:30:13.765Z,91.60
2017-12-30T01:32:43.568Z,91.60
2017-12-30T01:35:11.759Z,91.40
2017-12-30T01:37:40.890Z,91.40
2017-12-30T01:40:09.135Z,91.50
2017-12-30T01:42:39.485Z,91.50
2017-12-30T01:45:07.648Z,91.50
2017-12-30T01:47:36.849Z,91.60
2017-12-30T01:50:05.105Z,91.90
2017-12-30T01:52:34.248Z,91.30
2017-12-30T01:55:03.050Z,90.90
2017-12-30T01:57:32.579Z,90.50
2017-12-30T02:00:00.724Z,90.50
2017-12-30T02:02:30.625Z,90.50
2017-12-30T02:04:59.858Z,90.50
2017-12-30T02:07:28.351Z,90.80
2017-12-30T02:09:57.854Z,90.70
2017-12-30T02:12:26.970Z,90.60
2017-12-30T02:14:55.154Z,90.90
2017-12-30T02:17:23.539Z,91.50
2017-12-30T02:19:52.033Z,91.80
2017-12-30T02:22:20.217Z,91.90
2017-12-30T02:24:49.420Z,92.30
2017-12-30T02:27:18.366Z,92.50
2017-12-30T02:29:48.318Z,92.60
2017-12-30T02:32:18.889Z,92.60
2017-12-30T02:34:47.049Z,92.60
2017-12-30T02:37:16.067Z,92.30
2017-12-30T02:39:45.978Z,92.30
2017-12-30T02:42:17.426Z,92.20
2017-12-30T02:44:45.836Z,92.20
2017-12-30T02:47:18.201Z,92.00
2017-12-30T02:49:47.188Z,91.50
2017-12-30T02:52:18.016Z,91.10
2017-12-30T02:54:47.201Z,91.40
2017-12-30T02:57:17.307Z,91.50
2017-12-30T02:59:46.223Z,91.60
2017-12-30T03:02:16.072Z,91.60
2017-12-30T03:04:45.892Z,92.00
2017-12-30T03:07:14.083Z,91.60
2017-12-30T03:09:42.590Z,91.90
2017-12-30T03:12:11.766Z,91.60
2017-12-30T03:14:42.185Z,91.20
2017-12-30T03:17:12.832Z,91.20
2017-12-30T03:19:41.245Z,91.00
2017-12-30T03:22:11.039Z,91.30
2017-12-30T03:24:40.040Z,91.30
2017-12-30T03:27:08.193Z,91.50
2017-12-30T03:29:37.815Z,91.20
2017-12-30T03:32:06.911Z,91.20
2017-12-30T03:34:35.121Z,92.00
2017-12-30T03:37:06.026Z,92.30
2017-12-30T03:39:35.159Z,92.30
2017-12-30T03:42:04.386Z,92.50
2017-12-30T03:44:32.958Z,92.80
2017-12-30T03:47:01.158Z,93.10
2017-12-30T03:49:32.333Z,92.80
2017-12-30T03:52:02.250Z,92.80
2017-12-30T03:54:33.186Z,92.40
2017-12-30T03:57:01.714Z,91.90
2017-12-30T03:59:35.618Z,92.30
2017-12-30T04:02:04.694Z,92.80
2017-12-30T04:04:33.142Z,92.90
2017-12-30T04:07:02.648Z,92.60
2017-12-30T04:09:32.763Z,92.40
2017-12-30T04:12:00.925Z,92.20
2017-12-30T04:14:29.575Z,91.40
2017-12-30T04:17:01.004Z,91.50
2017-12-30T04:19:31.071Z,92.00
2017-12-30T04:22:01.117Z,92.00
2017-12-30T04:24:30.137Z,92.40
2017-12-30T04:27:02.820Z,92.40
2017-12-30T04:29:31.017Z,92.40
2017-12-30T04:32:01.591Z,92.40
2017-12-30T04:34:30.326Z,91.80
2017-12-30T04:36:59.868Z,91.90
2017-12-30T04:39:29.824Z,92.20
2017-12-30T04:41:58.679Z,92.20
2017-12-30T04:44:28.501Z,92.10
2017-12-30T04:46:57.658Z,91.40
2017-12-30T04:49:29.333Z,91.40
2017-12-30T04:51:58.245Z,91.60
2017-12-30T04:54:27.360Z,91.20
2017-12-30T04:57:01.999Z,91.30
2017-12-30T04:59:34.133Z,91.20
2017-12-30T05:02:04.159Z,90.00
2017-12-30T05:04:34.261Z,89.20
2017-12-30T05:07:06.891Z,85.60
2017-12-30T05:09:35.930Z,85.60
2017-12-30T05:12:04.945Z,88.10
2017-12-30T05:14:34.010Z,88.20
2017-12-30T05:17:03.298Z,88.60
2017-12-30T05:19:32.240Z,88.50
2017-12-30T05:22:00.397Z,88.90
2017-12-30T05:24:29.378Z,90.20
2017-12-30T05:26:57.806Z,90.10
2017-12-30T05:29:26.230Z,88.70
2017-12-30T05:31:56.940Z,89.40
2017-12-30T05:34:27.035Z,89.40
2017-12-30T05:36:58.784Z,88.50
2017-12-30T05:39:34.928Z,87.30
2017-12-30T05:42:03.124Z,87.90
2017-12-30T05:44:32.071Z,83.20
2017-12-30T05:47:01.810Z,84.70
2017-12-30T05:49:29.947Z,84.50
2017-12-30T05:51:58.426Z,84.00
2017-12-30T05:54:26.577Z,83.30
2017-12-30T05:56:56.836Z,83.80
2017-12-30T05:59:25.781Z,84.20
2017-12-30T06:01:56.383Z,84.60
2017-12-30T06:04:26.532Z,84.50
2017-12-30T06:06:55.568Z,84.70
2017-12-30T06:09:24.598Z,84.60
2017-12-30T06:11:53.364Z,84.10
2017-12-30T06:14:23.127Z,85.10
2017-12-30T06:16:52.162Z,84.70
2017-12-30T06:19:22.032Z,85.30
2017-12-30T06:21:50.230Z,85.30
2017-12-30T06:24:19.045Z,84.80
2017-12-30T06:26:47.958Z,86.30
2017-12-30T06:29:17.096Z,86.30
2017-12-30T06:31:45.266Z,85.70
2017-12-30T06:34:13.471Z,86.50
2017-12-30T06:36:42.398Z,86.70
2017-12-30T06:39:11.253Z,86.80
2017-12-30T06:41:40.703Z,87.70
2017-12-30T06:44:08.865Z,87.70
2017-12-30T06:46:37.919Z,87.10
2017-12-30T06:49:07.264Z,87.80
2017-12-30T06:51:36.353Z,89.10
2017-12-30T06:54:04.505Z,88.40
2017-12-30T06:56:33.745Z,89.10
2017-12-30T06:59:01.893Z,89.20
2017-12-30T07:01:30.089Z,89.50
2017-12-30T07:04:00.880Z,90.20
2017-12-30T07:06:30.503Z,89.90
2017-12-30T07:09:00.562Z,89.30
2017-12-30T07:11:28.717Z,89.30
2017-12-30T07:13:57.588Z,89.70
2017-12-30T07:16:25.741Z,89.20
2017-12-30T07:18:54.654Z,89.40
2017-12-30T07:21:23.065Z,89.30
2017-12-30T07:23:52.568Z,89.30
2017-12-30T07:26:21.543Z,90.00
2017-12-30T07:28:49.960Z,89.60
2017-12-30T07:31:18.150Z,89.80
2017-12-30T07:33:47.019Z,89.40
2017-12-30T07:36:15.194Z,89.50
2017-12-30T07:38:43.468Z,88.90
2017-12-30T07:41:12.270Z,89.50
2017-12-30T07:43:40.421Z,89.80
2017-12-30T07:46:08.817Z,89.20
2017-12-30T07:48:39.188Z,89.40
2017-12-30T07:51:09.071Z,89.50
2017-12-30T07:53:38.762Z,89.50
2017-12-30T07:56:06.905Z,88.20
2017-12-30T07:58:35.310Z,88.90
2017-12-30T08:01:04.213Z,88.90
2017-12-30T08:12:29.974Z,89.10
2017-12-30T08:14:59.725Z,89.10
2017-12-30T08:17:29.566Z,89.30
2017-12-30T08:19:57.739Z,88.20
2017-12-30T08:22:26.527Z,89.00
2017-12-30T08:24:56.740Z,89.20
2017-12-30T08:27:25.675Z,88.80
2017-12-30T08:29:53.917Z,88.90
2017-12-30T08:32:24.300Z,88.40
2017-12-30T08:34:53.458Z,88.20
2017-12-30T08:37:21.886Z,88.10
2017-12-30T08:39:51.676Z,85.60
2017-12-30T08:42:21.279Z,85.60
2017-12-30T08:44:49.654Z,85.60
2017-12-30T08:47:20.387Z,86.40
2017-12-30T08:49:49.494Z,86.60
2017-12-30T08:52:22.371Z,85.30
2017-12-30T08:57:30.334Z,85.70
2017-12-30T08:59:59.317Z,84.70
2017-12-30T09:02:29.623Z,84.30
2017-12-30T09:04:58.723Z,84.30
2017-12-30T09:07:29.095Z,84.80
2017-12-30T09:10:01.746Z,84.70
2017-12-30T09:12:35.403Z,85.10
2017-12-30T09:15:09.401Z,86.10
2017-12-30T09:17:38.750Z,85.10
2017-12-30T09:20:13.718Z,84.40
2017-12-30T09:22:47.900Z,84.50
2017-12-30T09:25:20.634Z,84.80
2017-12-30T09:27:48.888Z,81.70
2017-12-30T09:30:17.604Z,84.20
2017-12-30T09:32:54.236Z,83.40
2017-12-30T09:35:23.156Z,81.70
2017-12-30T09:37:53.003Z,81.70
2017-12-30T09:40:22.793Z,81.90
2017-12-30T09:42:52.165Z,80.70
2017-12-30T09:45:21.798Z,80.20
2017-12-30T09:47:53.016Z,79.50
2017-12-30T09:50:21.353Z,77.20
2017-12-30T09:52:50.417Z,79.10
2017-12-30T09:55:19.261Z,79.40
2017-12-30T09:57:47.497Z,80.20
2017-12-30T10:00:17.703Z,81.00
2017-12-30T10:02:46.834Z,79.50
2017-12-30T10:05:15.242Z,80.20
2017-12-30T10:07:44.230Z,81.00
2017-12-30T10:10:14.162Z,78.80
2017-12-30T10:12:45.515Z,78.90
2017-12-30T10:15:15.412Z,80.30
2017-12-30T10:17:47.035Z,78.40
2017-12-30T10:20:15.271Z,78.50
2017-12-30T10:22:44.750Z,80.40
2017-12-30T10:25:13.749Z,79.70
2017-12-30T10:27:43.264Z,78.60
2017-12-30T10:30:12.707Z,79.50
2017-12-30T10:32:42.652Z,79.90
2017-12-30T10:35:12.559Z,79.90
2017-12-30T10:37:42.364Z,80.30
2017-12-30T10:42:50.356Z,79.70
2017-12-30T10:45:18.552Z,80.60
2017-12-30T10:47:47.654Z,80.40
2017-12-30T10:50:17.617Z,79.50
2017-12-30T10:52:45.822Z,81.40
2017-12-30T10:55:14.006Z,83.70
2017-12-30T10:57:44.297Z,82.60
2017-12-30T11:00:13.280Z,83.10
2017-12-30T11:02:42.112Z,83.50
2017-12-30T11:05:10.515Z,85.00
2017-12-30T11:07:38.791Z,84.20
2017-12-30T11:10:11.027Z,84.70
2017-12-30T11:15:14.031Z,80.60
2017-12-30T11:17:44.707Z,80.80
2017-12-30T11:20:13.354Z,80.40
2017-12-30T11:22:44.088Z,79.50
2017-12-30T11:25:13.327Z,82.10
2017-12-30T11:27:43.383Z,81.20
2017-12-30T11:30:12.944Z,80.90
2017-12-30T11:32:44.733Z,80.20
2017-12-30T11:35:14.365Z,80.20
2017-12-30T11:37:43.706Z,80.20
2017-12-30T11:40:12.673Z,81.20
2017-12-30T11:42:49.601Z,81.00
2017-12-30T11:45:22.293Z,80.10
2017-12-30T11:47:52.216Z,80.40
2017-12-30T11:50:21.231Z,81.40
2017-12-30T11:52:49.659Z,81.30
2017-12-30T11:55:18.859Z,81.30
2017-12-30T11:57:48.534Z,81.70
2017-12-30T12:00:18.114Z,81.40
2017-12-30T12:02:51.102Z,81.40
2017-12-30T12:05:25.816Z,81.80
2017-12-30T12:07:55.355Z,81.50
2017-12-30T12:10:25.382Z,82.70
2017-12-30T12:12:54.812Z,82.80
2017-12-30T12:15:24.055Z,83.60
2017-12-30T12:17:54.828Z,82.90
2017-12-30T12:20:25.443Z,82.80
2017-12-30T12:22:55.156Z,82.80
2017-12-30T12:25:25.228Z,85.20
2017-12-30T12:27:58.889Z,88.10
2017-12-30T12:30:33.858Z,87.10
2017-12-30T12:33:04.733Z,87.80
2017-12-30T12:35:36.514Z,88.60
2017-12-30T12:38:06.137Z,88.50
2017-12-30T12:40:34.369Z,88.60
2017-12-30T12:43:02.545Z,87.90
2017-12-30T12:45:36.986Z,87.90
2017-12-30T12:48:08.620Z,88.50
2017-12-30T12:50:38.278Z,87.90
2017-12-30T12:53:07.889Z,88.00
2017-12-30T12:55:36.791Z,88.20
2017-12-30T12:58:05.010Z,89.10
2017-12-30T13:00:33.241Z,90.60
2017-12-30T13:03:04.868Z,91.30
2017-12-30T13:05:34.515Z,91.30
2017-12-30T13:08:03.513Z,92.10
2017-12-30T13:10:34.200Z,92.20
2017-12-30T13:13:05.674Z,91.70
2017-12-30T13:15:34.477Z,99.00
2017-12-30T13:18:04.426Z,92.20
2017-12-30T13:20:32.655Z,92.40
2017-12-30T13:23:01.909Z,91.90
2017-12-30T13:25:31.393Z,92.30
2017-12-30T13:30:37.062Z,91.50
2017-12-30T13:33:10.816Z,91.50
2017-12-30T13:35:40.929Z,90.40
2017-12-30T13:38:10.908Z,90.40
2017-12-30T13:40:39.966Z,90.00
2017-12-30T13:43:11.134Z,89.80
2017-12-30T13:45:39.657Z,90.40
2017-12-30T13:48:09.978Z,90.10
2017-12-30T13:50:38.539Z,90.10
2017-12-30T13:53:06.943Z,90.80
2017-12-30T13:55:35.499Z,90.20
2017-12-30T13:58:04.450Z,89.10
2017-12-30T14:00:32.949Z,87.60
2017-12-30T14:03:04.537Z,88.00
2017-12-30T14:05:32.965Z,88.00
2017-12-30T14:08:01.839Z,87.10
2017-12-30T14:10:31.483Z,87.30
2017-12-30T14:13:01.560Z,87.00
2017-12-30T14:15:31.479Z,87.00
2017-12-30T14:17:59.653Z,87.80
2017-12-30T14:20:28.194Z,89.70
2017-12-30T14:22:56.454Z,90.00
2017-12-30T14:25:26.015Z,91.20
2017-12-30T14:27:54.863Z,91.20
2017-12-30T14:30:25.339Z,91.00
2017-12-30T14:32:53.588Z,90.70
2017-12-30T14:35:21.736Z,90.60
2017-12-30T14:37:51.045Z,90.70
2017-12-30T14:40:20.750Z,90.70
2017-12-30T14:42:50.529Z,90.10
2017-12-30T14:45:18.675Z,90.20
2017-12-30T14:47:51.558Z,90.80
2017-12-30T14:50:20.524Z,90.00
2017-12-30T14:52:48.766Z,90.10
2017-12-30T14:55:17.932Z,90.00
2017-12-30T14:57:47.854Z,90.00
2017-12-30T15:00:16.929Z,90.10
2017-12-30T15:02:49.136Z,90.00
2017-12-30T15:05:19.239Z,90.90
2017-12-30T15:07:48.600Z,90.60
2017-12-30T15:10:16.804Z,90.50
2017-12-30T15:12:45.132Z,90.40
2017-12-30T15:15:14.740Z,89.80
2017-12-30T15:17:43.642Z,90.00
2017-12-30T15:20:12.349Z,90.00
2017-12-30T15:22:42.326Z,89.90
2017-12-30T15:25:12.128Z,89.60
2017-12-30T15:27:41.804Z,89.20
2017-12-30T15:30:10.001Z,89.20
2017-12-30T15:32:38.942Z,88.90
2017-12-30T15:35:08.914Z,88.90
2017-12-30T15:37:38.085Z,90.10
2017-12-30T15:40:06.957Z,90.60
2017-12-30T15:42:36.514Z,90.00
2017-12-30T15:45:05.068Z,90.40
2017-12-30T15:47:33.273Z,90.30
2017-12-30T15:50:01.850Z,90.50
2017-12-30T15:52:33.026Z,90.70
2017-12-30T15:55:01.468Z,90.40
2017-12-30T15:57:29.917Z,90.20
2017-12-30T15:59:58.097Z,90.20
2017-12-30T16:02:28.424Z,90.80
2017-12-30T16:04:57.883Z,91.50
2017-12-30T16:07:27.029Z,91.40
2017-12-30T16:09:56.617Z,91.40
2017-12-30T16:12:25.263Z,91.10
2017-12-30T16:14:57.352Z,91.50
2017-12-30T16:17:27.379Z,91.50
2017-12-30T16:19:55.556Z,91.60
2017-12-30T16:22:24.530Z,92.90
2017-12-30T16:24:53.286Z,93.50
2017-12-30T16:27:22.414Z,92.50
2017-12-30T16:29:51.061Z,92.50
2017-12-30T16:32:20.592Z,93.10
2017-12-30T16:34:50.362Z,93.50
2017-12-30T16:37:18.815Z,93.50
2017-12-30T16:39:46.972Z,91.90
2017-12-30T16:42:18.086Z,91.90
2017-12-30T16:44:47.506Z,91.80
2017-12-30T16:47:18.398Z,91.30
2017-12-30T16:49:48.253Z,91.30
2017-12-30T16:52:18.324Z,91.80
2017-12-30T16:54:53.467Z,91.80
2017-12-30T16:57:23.100Z,92.00
2017-12-30T16:59:51.387Z,92.30
2017-12-30T17:02:22.925Z,92.10
2017-12-30T17:04:51.606Z,92.30
2017-12-30T17:07:21.681Z,92.90
2017-12-30T17:09:51.408Z,92.50
2017-12-30T17:12:21.099Z,92.20
2017-12-30T17:14:50.369Z,92.10
2017-12-30T17:17:21.826Z,92.00
2017-12-30T17:19:52.714Z,91.60
2017-12-30T17:22:23.641Z,91.60
2017-12-30T17:24:53.352Z,91.60
2017-12-30T17:27:22.586Z,90.70
2017-12-30T17:29:51.338Z,90.00
2017-12-30T17:32:21.500Z,89.90
2017-12-30T17:34:51.304Z,88.60
2017-12-30T17:37:20.320Z,88.10
2017-12-30T17:39:50.733Z,90.10
2017-12-30T17:42:20.788Z,88.40
2017-12-30T17:44:49.740Z,88.40
2017-12-30T17:47:20.275Z,89.60
2017-12-30T17:49:49.707Z,89.80
2017-12-30T17:52:20.438Z,88.30
2017-12-30T17:54:48.571Z,89.90
2017-12-30T17:57:18.712Z,90.20
2017-12-30T17:59:49.566Z,91.00
2017-12-30T18:04:56.285Z,91.10
2017-12-30T18:07:25.369Z,90.90
2017-12-30T18:09:54.799Z,91.00
2017-12-30T18:12:24.319Z,91.10
2017-12-30T18:14:54.648Z,91.10
2017-12-30T18:17:23.962Z,91.90
2017-12-30T18:19:53.802Z,93.20
2017-12-30T18:22:23.785Z,94.00
2017-12-30T18:24:52.437Z,93.40
2017-12-30T18:27:22.835Z,93.30
2017-12-30T18:29:52.784Z,93.80
2017-12-30T18:32:25.518Z,93.60
2017-12-30T18:34:55.830Z,93.90
2017-12-30T18:37:25.088Z,93.70
2017-12-30T18:39:53.309Z,93.90
2017-12-30T18:42:25.104Z,92.60
2017-12-30T18:44:54.487Z,93.90
2017-12-30T18:47:23.763Z,93.90
2017-12-30T18:49:54.072Z,93.00
2017-12-30T18:52:22.343Z,93.50
2017-12-30T18:54:52.280Z,92.70
2017-12-30T18:57:22.654Z,94.00
2017-12-30T18:59:52.055Z,93.90
2017-12-30T19:02:23.378Z,93.40
2017-12-30T19:04:51.615Z,94.00
2017-12-30T19:07:20.544Z,94.30
2017-12-30T19:09:48.696Z,94.50
2017-12-30T19:12:17.897Z,93.80
2017-12-30T19:14:49.851Z,94.60
2017-12-30T19:17:19.550Z,94.60
2017-12-30T19:19:50.279Z,94.40
2017-12-30T19:22:20.430Z,94.00
2017-12-30T19:24:49.359Z,94.40
2017-12-30T19:27:18.137Z,94.40
2017-12-30T19:29:46.316Z,94.10
2017-12-30T19:32:14.671Z,94.00
2017-12-30T19:34:43.587Z,93.60
2017-12-30T19:37:12.690Z,93.60
2017-12-30T19:39:41.223Z,93.40
2017-12-30T19:42:09.636Z,93.80
2017-12-30T19:44:38.242Z,93.60
2017-12-30T19:47:06.449Z,93.90
2017-12-30T19:49:34.634Z,93.80
2017-12-30T19:52:03.111Z,94.10
2017-12-30T19:54:31.348Z,94.20
2017-12-30T19:57:01.181Z,93.80
2017-12-30T19:59:30.013Z,94.90
2017-12-30T20:02:00.267Z,95.50
2017-12-30T20:04:29.009Z,95.20
2017-12-30T20:06:57.981Z,95.80
2017-12-30T20:09:26.845Z,95.70
2017-12-30T20:11:55.758Z,95.80
2017-12-30T20:14:24.788Z,95.80
2017-12-30T20:16:54.675Z,95.60
2017-12-30T20:19:24.013Z,95.60
2017-12-30T20:21:54.363Z,96.00
2017-12-30T20:24:22.991Z,96.70
2017-12-30T20:26:52.477Z,96.40
2017-12-30T20:29:21.870Z,96.60
2017-12-30T20:31:50.034Z,97.40
2017-12-30T20:34:19.097Z,97.40
2017-12-30T20:36:47.577Z,97.20
2017-12-30T20:39:16.425Z,97.40
2017-12-30T20:41:45.720Z,97.40
2017-12-30T20:44:17.448Z,97.60
2017-12-30T20:46:46.362Z,97.70
2017-12-30T20:49:16.411Z,98.20
2017-12-30T20:51:45.258Z,98.00
2017-12-30T20:54:14.287Z,98.30
2017-12-30T20:56:42.469Z,97.90
2017-12-30T20:59:11.442Z,98.40
2017-12-30T21:01:40.245Z,98.30
2017-12-30T21:04:09.861Z,98.30
2017-12-30T21:06:39.599Z,98.00
2017-12-30T21:09:08.540Z,98.60
2017-12-30T21:11:37.592Z,98.20
2017-12-30T21:14:06.436Z,98.40
2017-12-30T21:16:35.290Z,98.70
2017-12-30T21:19:03.526Z,98.80
2017-12-30T21:21:33.845Z,98.80
2017-12-30T21:24:03.354Z,99.10
2017-12-30T21:26:35.027Z,99.10
2017-12-30T21:29:05.575Z,99.30
2017-12-30T21:31:35.961Z,99.10
2017-12-30T21:34:06.124Z,99.50
2017-12-30T21:36:37.462Z,99.50
2017-12-30T21:39:05.665Z,99.50
2017-12-30T21:41:35.069Z,99.60
2017-12-30T21:44:08.230Z,99.60
2017-12-30T21:46:39.045Z,99.40
2017-12-30T21:49:08.131Z,99.10
2017-12-30T21:51:37.961Z,99.70
2017-12-30T21:54:06.895Z,99.40
2017-12-30T21:56:35.336Z,99.40
2017-12-30T21:59:10.219Z,99.70
2017-12-30T22:01:41.419Z,99.70
2017-12-30T22:04:11.695Z,99.60
2017-12-30T22:06:40.717Z,99.80
2017-12-30T22:09:09.338Z,99.70
2017-12-30T22:11:40.396Z,99.70
2017-12-30T22:14:11.007Z,99.70
2017-12-30T22:16:44.384Z,99.80
2017-12-30T22:19:15.775Z,99.80
2017-12-30T22:21:44.269Z,99.90
2017-12-30T22:24:13.181Z,99.80
2017-12-30T22:26:43.619Z,99.70
2017-12-30T22:29:11.832Z,99.70
2017-12-30T22:31:40.761Z,99.10
2017-12-30T22:34:10.042Z,98.90
2017-12-30T22:36:39.969Z,98.90
2017-12-30T22:39:08.933Z,99.10
2017-12-30T22:41:39.366Z,98.70
2017-12-30T22:44:09.164Z,99.00
2017-12-30T22:46:39.297Z,99.30
2017-12-30T22:49:08.062Z,98.90
2017-12-30T22:51:37.762Z,99.00
2017-12-30T22:54:06.873Z,98.90
2017-12-30T22:56:35.298Z,98.80
2017-12-30T22:59:03.525Z,98.90
2017-12-30T23:01:33.007Z,99.10
2017-12-30T23:04:03.251Z,99.10
2017-12-30T23:06:32.150Z,99.10
2017-12-30T23:09:01.129Z,99.00
2017-12-30T23:11:30.529Z,99.10
2017-12-30T23:13:59.091Z,99.10
2017-12-30T23:16:29.445Z,98.70
2017-12-30T23:18:58.812Z,98.70
2017-12-30T23:21:28.665Z,98.60
2017-12-30T23:23:58.279Z,98.60
2017-12-30T23:26:27.012Z,98.20
2017-12-30T23:28:56.699Z,97.80
2017-12-30T23:31:25.633Z,97.80
2017-12-30T23:33:56.633Z,97.80
2017-12-30T23:36:26.952Z,97.80
2017-12-30T23:38:56.029Z,97.80
2017-12-30T23:41:24.532Z,97.30
2017-12-30T23:43:55.017Z,97.10
2017-12-30T23:46:23.903Z,97.10
2017-12-30T23:48:52.344Z,97.00
2017-12-30T23:51:20.756Z,96.80
2017-12-30T23:53:50.673Z,96.90
2017-12-30T23:56:19.290Z,96.60
2017-12-30T23:58:47.618Z,96.40
